createdAt,value
2022-09-23T00:01:03.260Z,66.35
2022-09-23T00:03:31.700Z,66.59
2022-09-23T00:06:03.544Z,66.15
2022-09-23T00:08:30.815Z,66.39
2022-09-23T00:10:57.980Z,66.30
2022-09-23T00:13:25.341Z,66.00
2022-09-23T00:15:52.591Z,66.20
2022-09-23T00:18:20.528Z,66.04
2022-09-23T00:20:47.590Z,65.95
2022-09-23T00:23:13.940Z,66.16
2022-09-23T00:25:40.333Z,65.67
2022-09-23T00:28:06.703Z,65.65
2022-09-23T00:30:33.209Z,65.71
2022-09-23T00:33:00.180Z,65.43
2022-09-23T00:35:26.588Z,65.11
2022-09-23T00:37:52.960Z,65.06
2022-09-23T00:40:19.438Z,64.84
2022-09-23T00:42:48.262Z,64.80
2022-09-23T00:45:15.786Z,64.78
2022-09-23T00:47:54.650Z,64.82
2022-09-23T00:50:31.269Z,64.75
2022-09-23T00:53:00.354Z,64.68
2022-09-23T00:55:30.260Z,64.63
2022-09-23T00:58:00.153Z,64.74
2022-09-23T01:00:27.038Z,64.72
2022-09-23T01:02:54.259Z,64.62
2022-09-23T01:05:21.033Z,64.63
2022-09-23T01:07:48.129Z,64.42
2022-09-23T01:10:18.467Z,64.49
2022-09-23T01:13:00.130Z,64.43
2022-09-23T01:15:45.294Z,64.55
2022-09-23T01:18:32.736Z,64.48
2022-09-23T01:21:17.162Z,64.26
2022-09-23T01:24:21.247Z,64.36
2022-09-23T01:26:59.005Z,64.32
2022-09-23T01:29:50.182Z,64.39
2022-09-23T01:32:42.407Z,64.20
2022-09-23T01:35:27.175Z,64.33
2022-09-23T01:38:18.050Z,64.24
2022-09-23T01:41:12.385Z,64.16
2022-09-23T01:44:02.184Z,64.33
2022-09-23T01:46:37.793Z,63.91
2022-09-23T01:49:12.066Z,64.12
2022-09-23T01:51:45.459Z,64.15
2022-09-23T01:54:34.014Z,63.79
2022-09-23T01:57:28.768Z,63.95
2022-09-23T02:00:04.317Z,63.92
2022-09-23T02:02:44.189Z,63.92
2022-09-23T02:05:21.189Z,63.97
2022-09-23T02:07:59.768Z,63.86
2022-09-23T02:10:33.893Z,63.83
2022-09-23T02:13:07.323Z,63.57
2022-09-23T02:15:49.571Z,63.48
2022-09-23T02:18:21.806Z,63.33
2022-09-23T02:20:53.471Z,63.28
2022-09-23T02:23:27.504Z,63.31
2022-09-23T02:26:19.806Z,63.23
2022-09-23T02:29:16.561Z,63.20
2022-09-23T02:31:53.594Z,62.96
2022-09-23T02:34:34.921Z,63.06
2022-09-23T02:37:17.018Z,63.00
2022-09-23T02:40:05.225Z,63.10
2022-09-23T02:42:47.962Z,63.16
2022-09-23T02:45:14.862Z,63.17
2022-09-23T02:47:47.182Z,63.04
2022-09-23T02:50:13.792Z,63.19
2022-09-23T02:52:40.223Z,63.24
2022-09-23T02:55:11.791Z,63.41
2022-09-23T02:57:38.642Z,63.31
2022-09-23T03:00:05.814Z,63.48
2022-09-23T03:02:52.046Z,63.43
2022-09-23T03:05:24.624Z,63.51
2022-09-23T03:08:09.765Z,63.52
2022-09-23T03:10:36.088Z,63.71
2022-09-23T03:13:15.185Z,63.50
2022-09-23T03:15:57.173Z,63.55
2022-09-23T03:18:37.051Z,63.46
2022-09-23T03:21:09.642Z,63.58
2022-09-23T03:23:40.322Z,63.72
2022-09-23T03:26:19.102Z,63.52
2022-09-23T03:28:46.884Z,63.54
2022-09-23T03:31:15.161Z,63.55
2022-09-23T03:33:46.790Z,63.65
2022-09-23T03:36:34.849Z,63.60
2022-09-23T03:39:08.485Z,63.49
2022-09-23T03:41:45.012Z,63.25
2022-09-23T03:44:11.962Z,63.71
2022-09-23T03:46:38.433Z,63.58
2022-09-23T03:49:16.882Z,63.64
2022-09-23T03:51:44.750Z,63.66
2022-09-23T03:54:11.706Z,63.71
2022-09-23T03:56:38.056Z,63.69
2022-09-23T03:59:04.468Z,63.47
2022-09-23T04:01:30.901Z,63.82
2022-09-23T04:03:57.276Z,63.49
2022-09-23T04:06:23.641Z,63.76
2022-09-23T04:08:50.434Z,63.68
2022-09-23T04:11:16.938Z,63.53
2022-09-23T04:13:43.273Z,63.35
2022-09-23T04:16:09.698Z,63.35
2022-09-23T04:18:36.145Z,63.10
2022-09-23T04:21:02.577Z,63.00
2022-09-23T04:23:28.938Z,63.06
2022-09-23T04:25:55.381Z,63.09
2022-09-23T04:28:22.455Z,62.96
2022-09-23T04:30:49.331Z,62.80
2022-09-23T04:33:16.500Z,62.62
2022-09-23T04:35:43.398Z,62.88
2022-09-23T04:38:12.374Z,62.71
2022-09-23T04:40:39.190Z,62.69
2022-09-23T04:43:05.889Z,62.97
2022-09-23T04:45:32.365Z,63.05
2022-09-23T04:47:59.230Z,63.17
2022-09-23T04:50:26.528Z,63.34
2022-09-23T04:52:53.941Z,63.16
2022-09-23T04:55:21.407Z,62.85
2022-09-23T04:57:48.078Z,62.78
2022-09-23T05:00:15.305Z,63.09
2022-09-23T05:02:50.337Z,63.38
2022-09-23T05:05:21.034Z,63.25
2022-09-23T05:07:48.369Z,63.22
2022-09-23T05:10:15.702Z,63.23
2022-09-23T05:12:42.105Z,63.64
2022-09-23T05:15:08.653Z,63.67
2022-09-23T05:17:37.129Z,63.54
2022-09-23T05:20:04.764Z,63.68
2022-09-23T05:22:31.389Z,63.41
2022-09-23T05:24:59.733Z,63.64
2022-09-23T05:27:26.094Z,63.74
2022-09-23T05:29:52.978Z,63.46
2022-09-23T05:32:20.187Z,63.29
2022-09-23T05:34:46.677Z,63.17
2022-09-23T05:37:13.110Z,63.25
2022-09-23T05:39:39.530Z,63.32
2022-09-23T05:42:06.150Z,63.61
2022-09-23T05:44:32.550Z,63.44
2022-09-23T05:46:59.101Z,63.51
2022-09-23T05:49:37.935Z,63.57
2022-09-23T05:52:11.883Z,63.42
2022-09-23T05:54:38.441Z,63.86
2022-09-23T05:57:06.004Z,63.74
2022-09-23T05:59:32.689Z,63.77
2022-09-23T06:01:59.814Z,64.01
2022-09-23T06:04:26.252Z,63.62
2022-09-23T06:06:53.062Z,63.64
2022-09-23T06:09:19.420Z,63.84
2022-09-23T06:11:46.700Z,64.38
2022-09-23T06:14:14.656Z,63.93
2022-09-23T06:16:41.229Z,63.93
2022-09-23T06:19:07.694Z,63.60
2022-09-23T06:21:36.552Z,63.87
2022-09-23T06:24:03.465Z,63.81
2022-09-23T06:26:33.502Z,64.80
2022-09-23T06:29:01.775Z,64.38
2022-09-23T06:31:29.106Z,64.50
2022-09-23T06:34:05.493Z,64.16
2022-09-23T06:36:43.469Z,63.97
2022-09-23T06:39:11.428Z,63.93
2022-09-23T06:41:38.255Z,63.79
2022-09-23T06:44:09.724Z,63.88
2022-09-23T06:46:36.816Z,64.08
2022-09-23T06:49:03.718Z,63.98
2022-09-23T06:51:30.450Z,63.84
2022-09-23T06:53:56.822Z,64.01
2022-09-23T06:56:23.616Z,63.81
2022-09-23T06:58:52.139Z,63.86
2022-09-23T07:01:19.763Z,63.82
2022-09-23T07:03:48.091Z,63.85
2022-09-23T07:06:15.022Z,63.82
2022-09-23T07:08:44.738Z,63.80
2022-09-23T07:11:12.974Z,63.43
2022-09-23T07:13:41.258Z,63.58
2022-09-23T07:16:08.893Z,63.55
2022-09-23T07:18:37.264Z,63.21
2022-09-23T07:21:15.678Z,63.25
2022-09-23T07:23:44.035Z,63.30
2022-09-23T07:26:10.417Z,62.97
2022-09-23T07:28:37.255Z,62.94
2022-09-23T07:31:15.824Z,62.89
2022-09-23T07:33:46.492Z,63.11
2022-09-23T07:36:19.129Z,63.32
2022-09-23T07:38:47.267Z,63.27
2022-09-23T07:41:16.960Z,63.03
2022-09-23T07:43:44.770Z,62.98
2022-09-23T07:46:14.976Z,62.80
2022-09-23T07:48:41.951Z,62.67
2022-09-23T07:51:17.302Z,62.98
2022-09-23T07:53:49.885Z,62.94
2022-09-23T07:56:18.919Z,62.91
2022-09-23T07:58:46.730Z,62.70
2022-09-23T08:01:13.618Z,62.90
2022-09-23T08:03:40.041Z,63.21
2022-09-23T08:06:13.057Z,63.20
2022-09-23T08:08:43.492Z,63.13
2022-09-23T08:11:13.085Z,63.36
2022-09-23T08:13:40.128Z,62.98
2022-09-23T08:16:06.711Z,62.89
2022-09-23T08:18:33.503Z,63.13
2022-09-23T08:21:00.128Z,62.88
2022-09-23T08:23:26.662Z,62.97
2022-09-23T08:26:01.544Z,63.29
2022-09-23T08:28:28.169Z,63.24
2022-09-23T08:30:55.270Z,63.41
2022-09-23T08:33:23.485Z,63.49
2022-09-23T08:35:50.981Z,63.96
2022-09-23T08:38:18.157Z,63.77
2022-09-23T08:40:49.382Z,63.84
2022-09-23T08:43:30.910Z,63.99
2022-09-23T08:46:02.510Z,63.66
2022-09-23T08:48:33.294Z,64.23
2022-09-23T08:51:06.233Z,64.23
2022-09-23T08:53:38.170Z,63.63
2022-09-23T08:56:14.289Z,64.00
2022-09-23T08:59:13.251Z,64.10
2022-09-23T09:01:40.326Z,64.16
2022-09-23T09:04:27.972Z,64.32
2022-09-23T09:07:35.747Z,64.15
2022-09-23T09:10:20.428Z,63.92
2022-09-23T09:13:07.473Z,64.63
2022-09-23T09:15:44.560Z,64.54
2022-09-23T09:18:31.777Z,64.54
2022-09-23T09:21:12.472Z,64.18
2022-09-23T09:24:02.423Z,64.28
2022-09-23T09:26:32.616Z,64.16
2022-09-23T09:29:30.728Z,64.27
2022-09-23T09:31:57.501Z,64.04
2022-09-23T09:34:27.743Z,64.43
2022-09-23T09:37:04.663Z,64.53
2022-09-23T09:39:35.086Z,64.45
2022-09-23T09:42:02.642Z,64.40
2022-09-23T09:45:19.707Z,64.62
2022-09-23T09:47:56.643Z,64.51
2022-09-23T09:50:41.305Z,64.98
2022-09-23T09:53:36.799Z,64.96
2022-09-23T09:56:12.784Z,65.05
2022-09-23T09:59:00.717Z,64.98
2022-09-23T10:01:28.825Z,65.42
2022-09-23T10:03:59.571Z,65.06
2022-09-23T10:06:28.925Z,65.36
2022-09-23T10:09:01.596Z,65.33
2022-09-23T10:11:32.452Z,65.18
2022-09-23T10:14:19.409Z,65.21
2022-09-23T10:16:48.756Z,65.33
2022-09-23T10:19:29.242Z,64.98
2022-09-23T10:22:00.124Z,65.06
2022-09-23T10:24:30.411Z,65.06
2022-09-23T10:27:03.192Z,64.90
2022-09-23T10:30:00.701Z,65.16
2022-09-23T10:32:31.620Z,65.18
2022-09-23T10:35:08.833Z,65.08
2022-09-23T10:37:41.858Z,65.27
2022-09-23T10:40:44.137Z,64.79
2022-09-23T10:43:45.650Z,65.06
2022-09-23T10:46:45.838Z,64.99
2022-09-23T10:49:37.192Z,65.26
2022-09-23T10:52:22.181Z,64.99
2022-09-23T10:55:27.120Z,65.32
2022-09-23T10:58:14.073Z,65.23
2022-09-23T11:00:52.174Z,65.19
2022-09-23T11:03:54.378Z,65.08
2022-09-23T11:06:32.917Z,64.76
2022-09-23T11:09:33.347Z,65.03
2022-09-23T11:12:18.022Z,64.99
2022-09-23T11:14:59.984Z,65.22
2022-09-23T11:17:40.704Z,65.34
2022-09-23T11:20:35.887Z,65.31
2022-09-23T11:23:24.687Z,65.25
2022-09-23T11:26:19.470Z,65.07
2022-09-23T11:29:16.726Z,65.40
2022-09-23T11:32:01.548Z,65.39
2022-09-23T11:34:52.562Z,65.73
2022-09-23T11:37:27.588Z,65.93
2022-09-23T11:40:15.107Z,65.68
2022-09-23T11:42:55.049Z,65.63
2022-09-23T11:45:28.958Z,65.59
2022-09-23T11:48:00.382Z,65.49
2022-09-23T11:50:33.949Z,65.76
2022-09-23T11:53:25.540Z,65.59
2022-09-23T11:56:00.621Z,65.15
2022-09-23T11:58:33.104Z,65.02
2022-09-23T12:01:09.309Z,64.95
2022-09-23T12:03:51.907Z,64.82
2022-09-23T12:06:26.773Z,64.53
2022-09-23T12:09:01.987Z,64.91
2022-09-23T12:11:49.446Z,64.47
2022-09-23T12:14:40.839Z,64.58
2022-09-23T12:17:15.195Z,64.54
2022-09-23T12:19:58.375Z,64.35
2022-09-23T12:22:55.899Z,64.71
2022-09-23T12:25:46.482Z,63.94
2022-09-23T12:28:37.624Z,64.02
2022-09-23T12:31:11.708Z,64.07
2022-09-23T12:33:38.610Z,63.63
2022-09-23T12:36:12.180Z,63.77
2022-09-23T12:38:46.856Z,63.75
2022-09-23T12:41:37.503Z,63.84
2022-09-23T12:44:23.166Z,63.58
2022-09-23T12:47:24.950Z,63.94
2022-09-23T12:49:53.069Z,63.27
2022-09-23T12:52:20.405Z,63.49
2022-09-23T12:54:49.238Z,63.61
2022-09-23T12:57:33.880Z,63.44
2022-09-23T13:00:06.441Z,63.90
2022-09-23T13:02:32.846Z,63.46
2022-09-23T13:05:27.319Z,63.57
2022-09-23T13:08:05.228Z,63.74
2022-09-23T13:10:43.082Z,63.48
2022-09-23T13:13:23.470Z,63.48
2022-09-23T13:15:50.361Z,63.76
2022-09-23T13:18:22.590Z,63.40
2022-09-23T13:20:53.924Z,63.56
2022-09-23T13:23:28.463Z,63.42
2022-09-23T13:26:01.466Z,63.28
2022-09-23T13:28:53.434Z,63.13
2022-09-23T13:31:21.039Z,63.31
2022-09-23T13:33:52.926Z,63.24
2022-09-23T13:36:20.087Z,63.04
2022-09-23T13:38:47.024Z,62.92
2022-09-23T13:41:17.674Z,63.03
2022-09-23T13:43:49.130Z,62.97
2022-09-23T13:46:21.539Z,63.40
2022-09-23T13:48:51.708Z,62.90
2022-09-23T13:51:32.950Z,63.22
2022-09-23T13:54:01.787Z,63.16
2022-09-23T13:56:31.174Z,63.82
2022-09-23T13:59:25.764Z,63.36
2022-09-23T14:02:10.655Z,63.52
2022-09-23T14:04:37.701Z,63.48
2022-09-23T14:07:04.703Z,63.43
2022-09-23T14:09:31.650Z,64.00
2022-09-23T14:12:00.558Z,63.72
2022-09-23T14:14:29.905Z,64.11
2022-09-23T14:16:58.262Z,63.70
2022-09-23T14:19:25.939Z,64.07
2022-09-23T14:21:56.304Z,63.93
2022-09-23T14:24:30.178Z,63.94
2022-09-23T14:27:00.411Z,63.71
2022-09-23T14:29:39.351Z,63.68
2022-09-23T14:32:20.880Z,64.07
2022-09-23T14:34:50.158Z,63.94
2022-09-23T14:37:52.160Z,64.08
2022-09-23T14:40:28.920Z,64.28
2022-09-23T14:42:55.461Z,64.57
2022-09-23T14:45:25.607Z,64.63
2022-09-23T14:47:58.451Z,64.45
2022-09-23T14:50:39.948Z,64.67
2022-09-23T14:53:32.393Z,64.59
2022-09-23T14:56:07.607Z,64.78
2022-09-23T14:59:03.443Z,65.27
2022-09-23T15:01:38.794Z,65.57
2022-09-23T15:04:23.533Z,65.53
2022-09-23T15:06:55.033Z,65.66
2022-09-23T15:09:25.982Z,65.95
2022-09-23T15:12:06.639Z,65.95
2022-09-23T15:14:41.075Z,66.24
2022-09-23T15:17:31.724Z,66.16
2022-09-23T15:20:08.902Z,66.78
2022-09-23T15:22:46.066Z,66.55
2022-09-23T15:25:17.353Z,66.66
2022-09-23T15:27:58.331Z,66.47
2022-09-23T15:30:24.955Z,67.01
2022-09-23T15:32:51.506Z,67.33
2022-09-23T15:35:20.931Z,67.09
2022-09-23T15:37:49.965Z,67.40
2022-09-23T15:40:25.715Z,67.43
2022-09-23T15:42:58.300Z,67.80
2022-09-23T15:45:42.896Z,67.88
2022-09-23T15:48:14.800Z,67.98
2022-09-23T15:50:42.407Z,68.05
2022-09-23T15:53:15.170Z,68.70
2022-09-23T15:55:41.558Z,68.94
2022-09-23T15:58:07.956Z,68.62
2022-09-23T16:00:37.634Z,68.89
2022-09-23T16:03:06.523Z,68.77
2022-09-23T16:05:37.704Z,69.04
2022-09-23T16:08:09.033Z,68.97
2022-09-23T16:10:36.781Z,69.13
2022-09-23T16:13:06.217Z,69.19
2022-09-23T16:15:32.888Z,68.98
2022-09-23T16:18:00.215Z,69.21
2022-09-23T16:20:29.667Z,69.45
2022-09-23T16:23:01.119Z,69.38
2022-09-23T16:25:31.391Z,69.66
2022-09-23T16:27:58.506Z,69.85
2022-09-23T16:30:29.340Z,70.12
2022-09-23T16:32:56.313Z,69.59
2022-09-23T16:35:25.551Z,70.00
2022-09-23T16:37:52.786Z,70.34
2022-09-23T16:40:21.465Z,70.38
2022-09-23T16:42:49.846Z,70.23
2022-09-23T16:45:18.089Z,70.52
2022-09-23T16:47:46.639Z,70.41
2022-09-23T16:50:15.042Z,70.81
2022-09-23T16:52:41.950Z,71.06
2022-09-23T16:55:10.534Z,71.19
2022-09-23T16:57:38.513Z,71.93
2022-09-23T17:00:27.259Z,72.20
2022-09-23T17:03:12.304Z,72.43
2022-09-23T17:05:38.696Z,72.99
2022-09-23T17:08:05.556Z,73.83
2022-09-23T17:10:32.918Z,73.64
2022-09-23T17:13:00.437Z,73.68
2022-09-23T17:15:26.873Z,73.92
2022-09-23T17:17:53.270Z,74.01
2022-09-23T17:20:20.004Z,74.48
2022-09-23T17:22:46.477Z,74.01
2022-09-23T17:25:12.853Z,74.73
2022-09-23T17:27:39.235Z,74.71
2022-09-23T17:30:06.199Z,74.52
2022-09-23T17:32:32.557Z,74.64
2022-09-23T17:35:04.323Z,74.65
2022-09-23T17:37:32.114Z,74.52
2022-09-23T17:39:59.501Z,74.84
2022-09-23T17:42:26.060Z,74.55
2022-09-23T17:44:52.452Z,74.36
2022-09-23T17:47:18.782Z,74.82
2022-09-23T17:49:47.432Z,75.04
2022-09-23T17:52:13.795Z,74.66
2022-09-23T17:54:40.148Z,75.23
2022-09-23T17:57:06.558Z,74.98
2022-09-23T17:59:32.957Z,74.72
2022-09-23T18:01:59.530Z,74.94
2022-09-23T18:04:26.090Z,74.74
2022-09-23T18:06:52.480Z,75.12
2022-09-23T18:09:19.357Z,74.84
2022-09-23T18:11:46.570Z,74.96
2022-09-23T18:14:21.058Z,74.86
2022-09-23T18:16:52.933Z,75.07
2022-09-23T18:19:22.001Z,74.86
2022-09-23T18:21:54.396Z,74.65
2022-09-23T18:24:31.882Z,75.08
2022-09-23T18:26:59.715Z,74.76
2022-09-23T18:29:26.370Z,74.77
2022-09-23T18:31:52.934Z,75.08
2022-09-23T18:34:20.046Z,74.83
2022-09-23T18:36:46.623Z,74.99
2022-09-23T18:39:13.004Z,75.05
2022-09-23T18:41:39.394Z,74.82
2022-09-23T18:44:05.899Z,74.83
2022-09-23T18:46:32.512Z,75.05
2022-09-23T18:49:18.178Z,74.71
2022-09-23T18:51:55.709Z,75.01
2022-09-23T18:54:28.482Z,74.75
2022-09-23T18:56:55.374Z,75.16
2022-09-23T18:59:25.767Z,75.13
2022-09-23T19:01:54.703Z,74.98
2022-09-23T19:04:22.269Z,74.98
2022-09-23T19:06:49.834Z,75.34
2022-09-23T19:09:17.744Z,75.05
2022-09-23T19:11:44.635Z,74.89
2022-09-23T19:14:12.281Z,74.84
2022-09-23T19:16:40.531Z,74.93
2022-09-23T19:19:07.415Z,74.94
2022-09-23T19:21:34.683Z,75.04
2022-09-23T19:24:07.183Z,75.07
2022-09-23T19:26:39.598Z,75.39
2022-09-23T19:29:12.381Z,75.49
2022-09-23T19:31:39.893Z,75.56
2022-09-23T19:34:11.625Z,75.90
2022-09-23T19:36:40.520Z,75.50
2022-09-23T19:39:11.782Z,76.12
2022-09-23T19:41:38.308Z,75.89
2022-09-23T19:44:07.135Z,76.22
2022-09-23T19:46:39.054Z,76.66
2022-09-23T19:49:07.030Z,76.73
2022-09-23T19:51:34.597Z,76.67
2022-09-23T19:54:02.074Z,76.59
2022-09-23T19:56:29.540Z,76.92
2022-09-23T19:58:57.058Z,77.08
2022-09-23T20:01:25.032Z,76.97
2022-09-23T20:03:51.490Z,77.02
2022-09-23T20:06:18.095Z,76.80
2022-09-23T20:08:45.164Z,76.62
2022-09-23T20:11:14.109Z,76.89
2022-09-23T20:13:43.817Z,77.11
2022-09-23T20:16:13.304Z,77.21
2022-09-23T20:18:40.590Z,77.06
2022-09-23T20:21:10.670Z,77.14
2022-09-23T20:23:37.769Z,77.05
2022-09-23T20:26:26.221Z,76.99
2022-09-23T20:28:52.953Z,76.94
2022-09-23T20:31:21.875Z,77.22
2022-09-23T20:33:52.173Z,76.75
2022-09-23T20:36:18.922Z,77.21
2022-09-23T20:38:45.321Z,76.67
2022-09-23T20:41:11.857Z,76.90
2022-09-23T20:43:38.617Z,76.64
2022-09-23T20:46:05.362Z,76.69
2022-09-23T20:48:32.124Z,76.76
2022-09-23T20:51:05.794Z,76.56
2022-09-23T20:53:32.543Z,76.80
2022-09-23T20:55:59.686Z,76.59
2022-09-23T20:58:29.164Z,76.58
2022-09-23T21:01:12.990Z,76.79
2022-09-23T21:03:42.158Z,76.45
2022-09-23T21:06:10.363Z,76.75
2022-09-23T21:08:37.668Z,76.79
2022-09-23T21:11:06.240Z,77.00
2022-09-23T21:13:33.489Z,77.05
2022-09-23T21:16:08.175Z,76.72
2022-09-23T21:18:37.882Z,77.03
2022-09-23T21:21:06.196Z,76.78
2022-09-23T21:23:34.624Z,76.67
2022-09-23T21:26:03.606Z,76.94
2022-09-23T21:28:37.710Z,76.63
2022-09-23T21:31:07.595Z,76.94
2022-09-23T21:33:37.274Z,76.62
2022-09-23T21:36:07.273Z,76.73
2022-09-23T21:38:35.675Z,76.57
2022-09-23T21:41:07.397Z,76.67
2022-09-23T21:43:35.927Z,76.81
2022-09-23T21:46:07.570Z,76.97
2022-09-23T21:48:41.146Z,76.76
2022-09-23T21:51:40.182Z,76.79
2022-09-23T21:54:11.917Z,76.88
2022-09-23T21:56:38.274Z,76.65
2022-09-23T21:59:05.510Z,76.86
2022-09-23T22:01:36.372Z,76.78
2022-09-23T22:04:08.217Z,76.96
2022-09-23T22:06:37.938Z,76.67
2022-09-23T22:09:10.235Z,76.96
2022-09-23T22:11:56.709Z,76.71
2022-09-23T22:14:25.710Z,77.00
2022-09-23T22:16:57.309Z,76.81
2022-09-23T22:19:32.673Z,76.82
2022-09-23T22:21:59.118Z,76.94
2022-09-23T22:24:25.477Z,77.30
2022-09-23T22:26:51.901Z,77.01
2022-09-23T22:29:36.985Z,77.32
2022-09-23T22:32:27.363Z,77.06
2022-09-23T22:34:53.823Z,77.37
2022-09-23T22:37:26.201Z,77.12
2022-09-23T22:39:52.810Z,77.32
2022-09-23T22:42:21.730Z,77.34
2022-09-23T22:44:48.658Z,77.15
2022-09-23T22:47:15.489Z,77.54
2022-09-23T22:49:42.786Z,77.82
2022-09-23T22:52:11.104Z,77.80
2022-09-23T22:54:37.818Z,77.71
2022-09-23T22:57:05.324Z,77.88
2022-09-23T22:59:32.030Z,77.60
2022-09-23T23:02:02.826Z,77.94
2022-09-23T23:04:30.088Z,78.03
2022-09-23T23:06:58.543Z,77.96
2022-09-23T23:09:25.347Z,77.99
2022-09-23T23:11:51.777Z,78.09
2022-09-23T23:14:18.768Z,78.16
2022-09-23T23:16:45.931Z,77.75
2022-09-23T23:19:16.422Z,77.95
2022-09-23T23:21:43.569Z,77.81
2022-09-23T23:24:15.470Z,77.92
2022-09-23T23:26:42.497Z,77.65
2022-09-23T23:29:11.166Z,77.80
2022-09-23T23:31:37.988Z,78.08
2022-09-23T23:34:04.849Z,78.12
2022-09-23T23:36:31.257Z,78.06
2022-09-23T23:38:57.631Z,78.18
2022-09-23T23:41:24.002Z,78.31
2022-09-23T23:43:55.215Z,78.49
2022-09-23T23:46:27.545Z,78.24
2022-09-23T23:48:55.374Z,78.52
2022-09-23T23:51:22.837Z,78.33
2022-09-23T23:53:49.236Z,78.21
2022-09-23T23:56:18.571Z,78.20
2022-09-23T23:58:45.293Z,78.16
